createdAt,value
2017-07-22T00:00:51.129Z,22.4
2017-07-22T00:02:05.408Z,22.34
2017-07-22T00:03:20.588Z,22.35
2017-07-22T00:04:34.233Z,22.34
2017-07-22T00:05:48.284Z,22.3
2017-07-22T00:07:01.784Z,22.28
2017-07-22T00:08:16.080Z,22.26
2017-07-22T00:09:30.041Z,22.24
2017-07-22T00:10:43.971Z,22.24
2017-07-22T00:11:57.929Z,22.22
2017-07-22T00:13:11.510Z,22.2
2017-07-22T00:14:25.029Z,22.21
2017-07-22T00:15:38.527Z,22.22
2017-07-22T00:16:52.204Z,22.25
2017-07-22T00:18:06.026Z,22.26
2017-07-22T00:19:19.728Z,22.25
2017-07-22T00:20:33.465Z,22.27
2017-07-22T00:21:46.998Z,22.27
2017-07-22T00:23:00.517Z,22.24
2017-07-22T00:24:14.482Z,22.23
2017-07-22T00:25:28.345Z,22.21
2017-07-22T00:26:42.090Z,22.21
2017-07-22T00:27:55.622Z,22.19
2017-07-22T00:29:09.644Z,22.17
2017-07-22T00:30:23.661Z,22.15
2017-07-22T00:31:37.263Z,22.15
2017-07-22T00:32:50.822Z,22.15
2017-07-22T00:34:04.990Z,22.16
2017-07-22T00:35:18.600Z,22.16
2017-07-22T00:36:32.747Z,22.18
2017-07-22T00:37:46.305Z,22.2
2017-07-22T00:38:59.855Z,22.22
2017-07-22T00:40:13.804Z,22.26
2017-07-22T00:41:53.378Z,22.27
2017-07-22T00:43:07.507Z,22.29
2017-07-22T00:44:21.194Z,22.32
2017-07-22T00:45:35.055Z,22.35
2017-07-22T00:46:49.219Z,22.36
2017-07-22T00:48:02.750Z,22.35
2017-07-22T00:49:16.958Z,22.35
2017-07-22T00:50:30.548Z,22.36
2017-07-22T00:51:44.592Z,22.34
2017-07-22T00:52:58.159Z,22.34
2017-07-22T00:54:11.950Z,22.33
2017-07-22T00:55:26.235Z,22.33
2017-07-22T00:56:40.112Z,22.32
2017-07-22T00:57:53.622Z,22.33
2017-07-22T00:59:07.210Z,22.33
2017-07-22T01:00:20.784Z,22.35
2017-07-22T01:01:34.750Z,22.36
2017-07-22T01:02:48.276Z,22.39
2017-07-22T01:04:01.965Z,22.41
2017-07-22T01:05:15.466Z,22.41
2017-07-22T01:06:29.549Z,22.43
2017-07-22T01:07:43.429Z,22.43
2017-07-22T01:08:57.095Z,22.42
2017-07-22T01:10:10.646Z,22.39
2017-07-22T01:11:25.102Z,22.38
2017-07-22T01:12:38.740Z,22.37
2017-07-22T01:13:52.917Z,22.39
2017-07-22T01:15:06.467Z,22.39
2017-07-22T01:16:19.964Z,22.37
2017-07-22T01:17:33.597Z,22.4
2017-07-22T01:18:47.618Z,22.4
2017-07-22T01:20:01.494Z,22.41
2017-07-22T01:21:15.016Z,22.39
2017-07-22T01:22:28.541Z,22.38
2017-07-22T01:24:09.388Z,22.35
2017-07-22T01:25:23.245Z,22.29
2017-07-22T01:26:37.095Z,22.25
2017-07-22T01:27:50.605Z,22.21
2017-07-22T01:29:04.139Z,22.19
2017-07-22T01:30:17.985Z,22.15
2017-07-22T01:31:31.545Z,22.11
2017-07-22T01:32:45.468Z,22.08
2017-07-22T01:33:58.969Z,22.03
2017-07-22T01:35:12.817Z,22.01
2017-07-22T01:36:27.501Z,21.98
2017-07-22T01:37:41.022Z,21.95
2017-07-22T01:38:55.313Z,21.9
2017-07-22T01:40:09.160Z,21.87
2017-07-22T01:41:22.723Z,21.82
2017-07-22T01:42:36.238Z,21.8
2017-07-22T01:43:49.953Z,21.81
2017-07-22T01:45:04.220Z,21.83
2017-07-22T01:46:17.920Z,21.87
2017-07-22T01:47:31.486Z,21.9
2017-07-22T01:48:45.390Z,21.93
2017-07-22T01:49:59.235Z,21.96
2017-07-22T01:51:13.024Z,21.98
2017-07-22T01:52:26.876Z,22.01
2017-07-22T01:53:40.709Z,22.02
2017-07-22T01:54:54.247Z,22.05
2017-07-22T01:56:07.847Z,22.09
2017-07-22T01:57:21.698Z,22.12
2017-07-22T01:58:35.231Z,22.15
2017-07-22T01:59:48.853Z,22.2
2017-07-22T02:01:02.425Z,22.22
2017-07-22T02:02:16.272Z,22.24
2017-07-22T02:03:30.323Z,22.26
2017-07-22T02:04:43.935Z,22.26
2017-07-22T02:05:58.338Z,22.25
2017-07-22T02:07:11.854Z,22.25
2017-07-22T02:08:25.933Z,22.25
2017-07-22T02:09:39.756Z,22.22
2017-07-22T02:10:53.306Z,22.19
2017-07-22T02:12:07.182Z,22.15
2017-07-22T02:13:20.670Z,22.15
2017-07-22T02:14:34.483Z,22.15
2017-07-22T02:15:48.497Z,22.16
2017-07-22T02:17:02.362Z,22.19
2017-07-22T02:18:15.891Z,22.22
2017-07-22T02:19:29.406Z,22.27
2017-07-22T02:20:43.296Z,22.32
2017-07-22T02:21:57.126Z,22.39
2017-07-22T02:23:10.730Z,22.43
2017-07-22T02:24:24.672Z,22.47
2017-07-22T02:25:38.516Z,22.47
2017-07-22T02:26:52.221Z,22.46
2017-07-22T02:28:06.011Z,22.43
2017-07-22T02:29:19.891Z,22.38
2017-07-22T02:30:33.874Z,22.32
2017-07-22T02:31:47.933Z,22.25
2017-07-22T02:33:01.480Z,22.16
2017-07-22T02:34:15.300Z,22.07
2017-07-22T02:35:28.844Z,21.99
2017-07-22T02:36:42.499Z,21.9
2017-07-22T02:37:56.336Z,21.84
2017-07-22T02:39:09.877Z,21.8
2017-07-22T02:40:23.724Z,21.79
2017-07-22T02:41:37.714Z,21.8
2017-07-22T02:42:51.632Z,21.79
2017-07-22T02:44:05.140Z,21.79
2017-07-22T02:45:18.789Z,21.77
2017-07-22T02:46:32.893Z,21.76
2017-07-22T02:47:46.832Z,21.75
2017-07-22T02:49:00.890Z,21.74
2017-07-22T02:50:14.423Z,21.72
2017-07-22T02:51:27.947Z,21.71
2017-07-22T02:52:41.871Z,21.7
2017-07-22T02:53:55.416Z,21.7
2017-07-22T02:55:08.950Z,21.69
2017-07-22T02:56:22.453Z,21.7
2017-07-22T02:57:35.964Z,21.71
2017-07-22T02:58:49.818Z,21.72
2017-07-22T03:00:04.012Z,21.72
2017-07-22T03:01:17.842Z,21.73
2017-07-22T03:02:32.013Z,21.74
2017-07-22T03:03:45.652Z,21.75
2017-07-22T03:04:59.459Z,21.73
2017-07-22T03:06:13.015Z,21.73
2017-07-22T03:07:26.556Z,21.73
2017-07-22T03:08:40.152Z,21.73
2017-07-22T03:09:53.696Z,21.71
2017-07-22T03:11:07.490Z,21.72
2017-07-22T03:12:21.020Z,21.72
2017-07-22T03:13:34.608Z,21.74
2017-07-22T03:14:48.531Z,21.71
2017-07-22T03:16:02.079Z,21.73
2017-07-22T03:17:15.855Z,21.72
2017-07-22T03:18:29.377Z,21.72
2017-07-22T03:19:42.940Z,21.71
2017-07-22T03:20:56.976Z,21.69
2017-07-22T03:22:10.719Z,21.67
2017-07-22T03:23:24.536Z,21.65
2017-07-22T03:24:38.122Z,21.66
2017-07-22T03:25:52.015Z,21.67
2017-07-22T03:27:06.269Z,21.68
2017-07-22T03:28:20.107Z,21.7
2017-07-22T03:29:33.909Z,21.71
2017-07-22T03:30:47.965Z,21.73
2017-07-22T03:32:01.506Z,21.76
2017-07-22T03:33:15.029Z,21.78
2017-07-22T03:34:28.853Z,21.79
2017-07-22T03:35:43.206Z,21.79
2017-07-22T03:36:56.762Z,21.8
2017-07-22T03:38:10.410Z,21.81
2017-07-22T03:39:24.194Z,21.8
2017-07-22T03:40:38.094Z,21.79
2017-07-22T03:41:52.105Z,21.8
2017-07-22T03:43:38.040Z,21.81
2017-07-22T03:44:51.555Z,21.8
2017-07-22T03:46:05.196Z,21.8
2017-07-22T03:47:19.228Z,21.8
2017-07-22T03:48:33.057Z,21.78
2017-07-22T03:49:46.645Z,21.77
2017-07-22T03:51:00.194Z,21.77
2017-07-22T03:52:13.694Z,21.75
2017-07-22T03:53:27.623Z,21.74
2017-07-22T03:54:41.169Z,21.73
2017-07-22T03:55:54.676Z,21.72
2017-07-22T03:57:08.204Z,21.7
2017-07-22T03:58:22.023Z,21.71
2017-07-22T03:59:36.499Z,21.7
2017-07-22T04:00:50.001Z,21.69
2017-07-22T04:02:03.524Z,21.69
2017-07-22T04:03:17.176Z,21.69
2017-07-22T04:04:30.877Z,21.7
2017-07-22T04:05:45.078Z,21.71
2017-07-22T04:06:58.948Z,21.71
2017-07-22T04:08:13.100Z,21.71
2017-07-22T04:09:26.611Z,21.7
2017-07-22T04:10:40.375Z,21.71
2017-07-22T04:11:54.277Z,21.71
2017-07-22T04:13:07.853Z,21.72
2017-07-22T04:14:21.445Z,21.75
2017-07-22T04:15:35.028Z,21.75
2017-07-22T04:16:48.854Z,21.77
2017-07-22T04:18:02.673Z,21.78
2017-07-22T04:19:16.238Z,21.79
2017-07-22T04:20:29.812Z,21.8
2017-07-22T04:21:43.379Z,21.81
2017-07-22T04:22:56.893Z,21.81
2017-07-22T04:24:10.709Z,21.83
2017-07-22T04:25:24.209Z,21.85
2017-07-22T04:26:38.033Z,21.85
2017-07-22T04:27:51.561Z,21.85
2017-07-22T04:29:05.074Z,21.87
2017-07-22T04:30:18.879Z,21.9
2017-07-22T04:31:32.427Z,21.91
2017-07-22T04:32:45.945Z,21.93
2017-07-22T04:33:59.878Z,21.94
2017-07-22T04:35:13.382Z,21.96
2017-07-22T04:36:27.200Z,21.98
2017-07-22T04:37:40.756Z,21.99
2017-07-22T04:38:54.309Z,21.99
2017-07-22T04:40:07.879Z,22.01
2017-07-22T04:41:21.727Z,22.03
2017-07-22T04:42:35.540Z,22.05
2017-07-22T04:43:49.389Z,22.07
2017-07-22T04:45:03.285Z,22.09
2017-07-22T04:46:17.147Z,22.13
2017-07-22T04:47:31.524Z,22.13
2017-07-22T04:48:45.688Z,22.14
2017-07-22T04:49:59.616Z,22.14
2017-07-22T04:51:13.129Z,22.15
2017-07-22T04:52:26.667Z,22.18
2017-07-22T04:53:40.156Z,22.21
2017-07-22T04:54:54.006Z,22.23
2017-07-22T04:56:07.851Z,22.24
2017-07-22T04:57:22.036Z,22.25
2017-07-22T04:58:35.861Z,22.27
2017-07-22T04:59:49.387Z,22.33
2017-07-22T05:01:03.510Z,22.37
2017-07-22T05:02:17.083Z,22.43
2017-07-22T05:03:30.584Z,22.5
2017-07-22T05:04:44.347Z,22.59
2017-07-22T05:05:57.946Z,22.69
2017-07-22T05:07:12.061Z,22.83
2017-07-22T05:08:25.960Z,23.17
2017-07-22T05:09:39.463Z,23.36
2017-07-22T05:10:52.960Z,23.54
2017-07-22T05:12:06.566Z,23.77
2017-07-22T05:13:20.401Z,24.01
2017-07-22T05:14:33.940Z,24.75
2017-07-22T05:15:47.676Z,25.37
2017-07-22T05:17:01.264Z,26.79
2017-07-22T05:18:14.883Z,28.68
2017-07-22T05:19:28.751Z,29.39
2017-07-22T05:20:42.270Z,28.99
2017-07-22T05:21:55.769Z,28.78
2017-07-22T05:23:09.461Z,28.7
2017-07-22T05:24:23.052Z,28.43
2017-07-22T05:25:36.861Z,28.18
2017-07-22T05:26:50.399Z,27.96
2017-07-22T05:28:03.931Z,27.84
2017-07-22T05:29:17.515Z,27.78
2017-07-22T05:30:31.351Z,27.99
2017-07-22T05:31:45.187Z,27.63
2017-07-22T05:32:59.122Z,28.21
2017-07-22T05:34:12.702Z,28
2017-07-22T05:35:26.594Z,27.64
2017-07-22T05:36:40.788Z,27.25
2017-07-22T05:37:54.947Z,26.95
2017-07-22T05:39:08.583Z,26.73
2017-07-22T05:40:22.111Z,26.57
2017-07-22T05:41:35.802Z,26.43
2017-07-22T05:42:49.641Z,26.27
2017-07-22T05:44:03.766Z,26.18
2017-07-22T05:45:17.287Z,26.35
2017-07-22T05:46:30.958Z,26.59
2017-07-22T05:47:44.524Z,26.9
2017-07-22T05:48:59.003Z,27
2017-07-22T05:50:12.927Z,26.85
2017-07-22T05:51:26.478Z,26.7
2017-07-22T05:52:39.988Z,26.57
2017-07-22T05:53:53.822Z,26.43
2017-07-22T05:55:07.392Z,26.28
2017-07-22T05:56:21.204Z,26.09
2017-07-22T05:57:35.034Z,25.9
2017-07-22T05:58:48.538Z,25.73
2017-07-22T06:00:02.090Z,25.6
2017-07-22T06:01:15.952Z,25.48
2017-07-22T06:02:29.818Z,25.38
2017-07-22T06:03:43.356Z,25.3
2017-07-22T06:04:56.897Z,25.25
2017-07-22T06:06:10.587Z,25.2
2017-07-22T06:07:24.439Z,25.23
2017-07-22T06:08:38.253Z,25.24
2017-07-22T06:09:52.210Z,25.22
2017-07-22T06:11:06.376Z,25.17
2017-07-22T06:12:19.945Z,25.11
2017-07-22T06:13:33.521Z,25.06
2017-07-22T06:14:47.376Z,25.03
2017-07-22T06:16:01.337Z,24.99
2017-07-22T06:17:14.872Z,24.94
2017-07-22T06:18:28.396Z,24.84
2017-07-22T06:19:41.939Z,24.74
2017-07-22T06:20:55.812Z,24.63
2017-07-22T06:22:09.339Z,24.53
2017-07-22T06:23:22.906Z,24.43
2017-07-22T06:24:36.755Z,24.37
2017-07-22T06:25:50.326Z,24.32
2017-07-22T06:27:04.153Z,24.3
2017-07-22T06:28:17.680Z,24.32
2017-07-22T06:29:31.180Z,24.36
2017-07-22T06:30:45.690Z,24.39
2017-07-22T06:31:59.795Z,24.42
2017-07-22T06:33:14.161Z,24.42
2017-07-22T06:34:27.686Z,24.44
2017-07-22T06:35:41.251Z,24.42
2017-07-22T06:36:54.988Z,24.4
2017-07-22T06:38:08.563Z,24.39
2017-07-22T06:39:22.730Z,24.38
2017-07-22T06:40:36.565Z,24.39
2017-07-22T06:41:50.160Z,24.42
2017-07-22T06:43:04.119Z,24.48
2017-07-22T06:44:17.948Z,24.56
2017-07-22T06:45:32.067Z,24.67
2017-07-22T06:46:45.652Z,24.75
2017-07-22T06:47:59.199Z,24.81
2017-07-22T06:49:13.304Z,24.84
2017-07-22T06:50:27.311Z,24.91
2017-07-22T06:51:41.292Z,24.98
2017-07-22T06:52:54.807Z,25.06
2017-07-22T06:54:08.636Z,25.16
2017-07-22T06:55:22.169Z,25.36
2017-07-22T06:56:35.748Z,25.61
2017-07-22T06:57:49.596Z,25.82
2017-07-22T06:59:03.450Z,25.98
2017-07-22T07:00:17.620Z,26.07
2017-07-22T07:01:31.171Z,26.12
2017-07-22T07:02:44.768Z,26.2
2017-07-22T07:03:58.692Z,26.38
2017-07-22T07:05:12.244Z,26.57
2017-07-22T07:06:25.760Z,26.7
2017-07-22T07:07:39.659Z,26.8
2017-07-22T07:08:53.503Z,26.91
2017-07-22T07:10:07.397Z,27.01
2017-07-22T07:11:21.504Z,27.18
2017-07-22T07:12:35.047Z,27.38
2017-07-22T07:13:48.619Z,27.62
2017-07-22T07:15:02.142Z,27.77
2017-07-22T07:16:16.284Z,27.92
2017-07-22T07:17:29.961Z,27.98
2017-07-22T07:18:43.578Z,28.04
2017-07-22T07:19:57.694Z,28.08
2017-07-22T07:21:11.216Z,28.12
2017-07-22T07:22:25.329Z,28.05
2017-07-22T07:23:39.802Z,27.95
2017-07-22T07:24:53.346Z,27.8
2017-07-22T07:26:06.892Z,27.65
2017-07-22T07:27:21.078Z,27.58
2017-07-22T07:28:35.009Z,27.6
2017-07-22T07:29:49.085Z,27.53
2017-07-22T07:31:03.362Z,27.41
2017-07-22T07:32:16.957Z,27.32
2017-07-22T07:33:30.558Z,27.19
2017-07-22T07:34:44.845Z,27.08
2017-07-22T07:35:59.498Z,27.02
2017-07-22T07:37:13.097Z,27.03
2017-07-22T07:38:26.641Z,27.04
2017-07-22T07:39:40.245Z,27.07
2017-07-22T07:40:54.463Z,27.08
2017-07-22T07:42:07.979Z,27.06
2017-07-22T07:43:21.747Z,27.06
2017-07-22T07:44:35.493Z,27.1
2017-07-22T07:45:49.130Z,27.16
2017-07-22T07:47:03.260Z,27.28
2017-07-22T07:48:16.802Z,27.39
2017-07-22T07:49:30.616Z,27.49
2017-07-22T07:50:44.573Z,27.57
2017-07-22T07:51:58.426Z,27.64
2017-07-22T07:53:12.575Z,27.68
2017-07-22T07:54:26.123Z,27.7
2017-07-22T07:55:39.789Z,27.7
2017-07-22T07:56:53.790Z,27.73
2017-07-22T07:58:07.465Z,27.76
2017-07-22T07:59:21.618Z,27.8
2017-07-22T08:00:35.194Z,27.83
2017-07-22T08:01:49.264Z,27.85
2017-07-22T08:03:03.196Z,27.91
2017-07-22T08:04:17.028Z,28
2017-07-22T08:05:30.873Z,28.08
2017-07-22T08:06:44.410Z,28.21
2017-07-22T08:07:58.077Z,28.32
2017-07-22T08:09:11.984Z,28.43
2017-07-22T08:10:25.548Z,28.52
2017-07-22T08:11:39.350Z,28.61
2017-07-22T08:12:53.233Z,28.67
2017-07-22T08:14:06.773Z,28.76
2017-07-22T08:15:20.327Z,28.83
2017-07-22T08:16:35.599Z,28.88
2017-07-22T08:19:18.978Z,28.93
2017-07-22T08:20:33.033Z,28.93
2017-07-22T08:21:46.605Z,28.9
2017-07-22T08:23:00.778Z,28.84
2017-07-22T08:24:14.700Z,28.8
2017-07-22T08:25:28.548Z,28.88
2017-07-22T08:26:42.475Z,28.91
2017-07-22T08:27:56.095Z,28.9
2017-07-22T08:29:10.037Z,28.8
2017-07-22T08:30:24.095Z,28.67
2017-07-22T08:31:37.615Z,28.54
2017-07-22T08:32:51.523Z,28.4
2017-07-22T08:34:05.196Z,28.23
2017-07-22T08:35:19.407Z,28.12
2017-07-22T08:36:32.974Z,28.1
2017-07-22T08:37:47.017Z,28.14
2017-07-22T08:39:00.884Z,28.24
2017-07-22T08:40:14.789Z,28.38
2017-07-22T08:41:28.838Z,28.51
2017-07-22T08:42:42.477Z,28.62
2017-07-22T08:43:58.627Z,28.73
2017-07-22T08:45:12.874Z,28.78
2017-07-22T08:46:26.461Z,28.86
2017-07-22T08:47:40.701Z,28.87
2017-07-22T08:48:54.604Z,28.82
2017-07-22T08:50:09.018Z,28.8
2017-07-22T08:51:23.927Z,28.75
2017-07-22T08:52:39.559Z,28.7
2017-07-22T08:53:54.886Z,28.65
2017-07-22T08:55:08.763Z,28.67
2017-07-22T08:56:22.424Z,28.67
2017-07-22T08:57:35.981Z,28.68
2017-07-22T08:58:49.529Z,28.73
2017-07-22T09:00:03.859Z,28.78
2017-07-22T09:01:17.752Z,28.79
2017-07-22T09:02:31.618Z,28.81
2017-07-22T09:03:45.506Z,28.86
2017-07-22T09:04:59.136Z,28.94
2017-07-22T09:06:13.110Z,29.09
2017-07-22T09:07:27.088Z,29.22
2017-07-22T09:08:40.751Z,29.28
2017-07-22T09:09:54.644Z,29.38
2017-07-22T09:11:08.163Z,29.4
2017-07-22T09:12:22.006Z,29.42
2017-07-22T09:13:35.619Z,29.41
2017-07-22T09:14:49.238Z,29.43
2017-07-22T09:16:02.965Z,29.53
2017-07-22T09:17:16.837Z,29.65
2017-07-22T09:18:30.834Z,29.72
2017-07-22T09:19:45.066Z,29.76
2017-07-22T09:20:59.066Z,29.73
2017-07-22T09:22:13.442Z,29.73
2017-07-22T09:23:27.302Z,29.74
2017-07-22T09:24:41.211Z,29.74
2017-07-22T09:25:54.760Z,29.74
2017-07-22T09:27:08.812Z,29.74
2017-07-22T09:28:22.573Z,29.69
2017-07-22T09:29:36.139Z,29.62
2017-07-22T09:30:50.158Z,29.56
2017-07-22T09:32:03.758Z,29.46
2017-07-22T09:33:17.402Z,29.41
2017-07-22T09:34:31.187Z,29.37
2017-07-22T09:35:46.314Z,29.33
2017-07-22T09:37:01.096Z,29.29
2017-07-22T09:38:14.720Z,29.26
2017-07-22T09:39:28.737Z,29.19
2017-07-22T09:40:42.355Z,29.15
2017-07-22T09:41:55.929Z,29.14
2017-07-22T09:43:09.636Z,29.11
2017-07-22T09:44:23.520Z,29.1
2017-07-22T09:45:37.227Z,29.07
2017-07-22T09:46:50.971Z,29
2017-07-22T09:48:04.522Z,28.97
2017-07-22T09:49:18.427Z,28.91
2017-07-22T09:50:32.090Z,28.88
2017-07-22T09:51:45.857Z,28.9
2017-07-22T09:52:59.758Z,28.9
2017-07-22T09:54:13.431Z,28.9
2017-07-22T09:55:27.293Z,28.93
2017-07-22T09:56:41.446Z,28.96
2017-07-22T09:57:55.062Z,28.98
2017-07-22T09:59:08.994Z,29.02
2017-07-22T10:00:23.265Z,29.07
2017-07-22T10:01:37.177Z,29.12
2017-07-22T10:02:51.552Z,29.16
2017-07-22T10:04:07.895Z,29.2
2017-07-22T10:05:22.096Z,29.3
2017-07-22T10:06:37.305Z,29.41
2017-07-22T10:07:55.517Z,29.54
2017-07-22T10:09:13.574Z,29.65
2017-07-22T10:10:30.023Z,29.73
2017-07-22T10:11:44.950Z,29.77
2017-07-22T10:13:00.327Z,29.79
2017-07-22T10:14:14.618Z,29.77
2017-07-22T10:15:29.448Z,29.69
2017-07-22T10:16:43.638Z,29.66
2017-07-22T10:17:58.932Z,29.62
2017-07-22T10:19:13.520Z,29.57
2017-07-22T10:20:27.256Z,29.54
2017-07-22T10:21:41.041Z,29.46
2017-07-22T10:22:55.972Z,29.4
2017-07-22T10:24:10.518Z,29.34
2017-07-22T10:25:24.930Z,29.3
2017-07-22T10:26:38.551Z,29.27
2017-07-22T10:27:52.662Z,29.26
2017-07-22T10:29:06.212Z,29.28
2017-07-22T10:30:20.202Z,29.31
2017-07-22T10:31:34.721Z,29.37
2017-07-22T10:32:48.303Z,29.45
2017-07-22T10:34:02.205Z,29.54
2017-07-22T10:35:16.145Z,29.63
2017-07-22T10:36:29.786Z,29.73
2017-07-22T10:37:43.707Z,29.83
2017-07-22T10:38:57.259Z,29.92
2017-07-22T10:40:10.915Z,29.99
2017-07-22T10:41:26.113Z,29.99
2017-07-22T10:42:42.432Z,30
2017-07-22T10:43:57.389Z,29.97
2017-07-22T10:45:11.609Z,29.97
2017-07-22T10:46:25.720Z,29.99
2017-07-22T10:47:39.720Z,30.01
2017-07-22T10:48:53.294Z,30.05
2017-07-22T10:50:07.243Z,30.1
2017-07-22T10:51:21.303Z,30.13
2017-07-22T10:52:35.257Z,30.19
2017-07-22T10:53:49.352Z,30.19
2017-07-22T10:55:02.868Z,30.18
2017-07-22T10:56:16.907Z,30.15
2017-07-22T10:57:30.581Z,30.11
2017-07-22T10:58:44.325Z,30.07
2017-07-22T10:59:58.540Z,30.04
2017-07-22T11:01:13.199Z,30
2017-07-22T11:02:29.177Z,29.94
2017-07-22T11:03:42.821Z,29.88
2017-07-22T11:04:56.790Z,29.82
2017-07-22T11:06:10.505Z,29.77
2017-07-22T11:07:24.168Z,29.72
2017-07-22T11:08:38.143Z,29.69
2017-07-22T11:09:52.188Z,29.62
2017-07-22T11:11:07.377Z,29.61
2017-07-22T11:12:21.357Z,29.61
2017-07-22T11:13:35.006Z,29.58
2017-07-22T11:14:49.287Z,29.56
2017-07-22T11:16:03.174Z,29.57
2017-07-22T11:17:17.039Z,29.58
2017-07-22T11:18:30.669Z,29.59
2017-07-22T11:19:44.462Z,29.57
2017-07-22T11:20:59.765Z,29.55
2017-07-22T11:22:14.267Z,29.5
2017-07-22T11:23:29.051Z,29.43
2017-07-22T11:24:43.275Z,29.35
2017-07-22T11:25:58.422Z,29.29
2017-07-22T11:27:12.250Z,29.24
2017-07-22T11:28:25.921Z,29.21
2017-07-22T11:29:41.763Z,29.19
2017-07-22T11:30:57.054Z,29.18
2017-07-22T11:32:14.657Z,29.16
2017-07-22T11:33:29.780Z,29.13
2017-07-22T11:34:44.851Z,29.07
2017-07-22T11:36:02.630Z,29.01
2017-07-22T11:37:18.396Z,28.96
2017-07-22T11:38:33.489Z,28.92
2017-07-22T11:39:48.310Z,28.87
2017-07-22T11:41:02.751Z,28.79
2017-07-22T11:42:16.802Z,28.74
2017-07-22T11:43:30.743Z,28.69
2017-07-22T11:44:45.090Z,28.61
2017-07-22T11:45:58.961Z,28.51
2017-07-22T11:47:13.322Z,28.42
2017-07-22T11:48:27.577Z,28.33
2017-07-22T11:49:41.147Z,28.25
2017-07-22T11:50:54.728Z,28.14
2017-07-22T11:52:08.602Z,28.07
2017-07-22T11:53:22.464Z,27.99
2017-07-22T11:54:36.112Z,27.91
2017-07-22T11:55:49.951Z,27.86
2017-07-22T11:57:03.568Z,27.79
2017-07-22T11:58:17.468Z,27.72
2017-07-22T11:59:35.376Z,27.65
2017-07-22T12:00:49.037Z,27.56
2017-07-22T12:02:03.412Z,27.48
2017-07-22T12:03:17.530Z,27.42
2017-07-22T12:04:32.364Z,27.33
2017-07-22T12:05:47.259Z,27.29
2017-07-22T12:07:00.999Z,27.23
2017-07-22T12:08:14.744Z,27.17
2017-07-22T12:09:30.928Z,27.12
2017-07-22T12:10:49.852Z,27.1
2017-07-22T12:12:05.193Z,27.1
2017-07-22T12:13:24.040Z,27.12
2017-07-22T12:14:40.675Z,27.19
2017-07-22T12:15:55.963Z,27.24
2017-07-22T12:17:14.500Z,27.3
2017-07-22T12:18:31.941Z,27.38
2017-07-22T12:19:50.227Z,27.46
2017-07-22T12:21:08.874Z,27.52
2017-07-22T12:22:23.751Z,27.58
2017-07-22T12:23:38.902Z,27.6
2017-07-22T12:24:56.032Z,27.64
2017-07-22T12:26:11.153Z,27.63
2017-07-22T12:28:07.186Z,27.65
2017-07-22T12:29:21.320Z,27.67
2017-07-22T12:30:35.067Z,27.76
2017-07-22T12:31:49.853Z,27.86
2017-07-22T12:33:03.902Z,27.96
2017-07-22T12:34:18.156Z,28.02
2017-07-22T12:35:32.575Z,28.12
2017-07-22T12:36:47.281Z,28.28
2017-07-22T12:38:01.278Z,28.43
2017-07-22T12:39:15.256Z,28.6
2017-07-22T12:40:29.400Z,28.74
2017-07-22T12:41:43.412Z,28.88
2017-07-22T12:42:57.499Z,29
2017-07-22T12:44:11.414Z,29.09
2017-07-22T12:45:25.987Z,29.12
2017-07-22T12:46:39.853Z,29.11
2017-07-22T12:47:53.685Z,29.05
2017-07-22T12:49:07.264Z,28.98
2017-07-22T12:50:20.995Z,28.93
2017-07-22T12:51:34.826Z,28.9
2017-07-22T12:52:49.072Z,28.89
2017-07-22T12:54:02.783Z,28.85
2017-07-22T12:55:16.316Z,28.83
2017-07-22T12:56:29.903Z,28.76
2017-07-22T12:57:43.781Z,28.73
2017-07-22T12:58:57.470Z,28.7
2017-07-22T13:00:11.096Z,28.68
2017-07-22T13:01:25.003Z,28.63
2017-07-22T13:02:38.952Z,28.64
2017-07-22T13:03:52.862Z,28.64
2017-07-22T13:05:06.511Z,28.68
2017-07-22T13:06:20.376Z,28.72
2017-07-22T13:07:33.914Z,28.78
2017-07-22T13:08:47.535Z,28.83
2017-07-22T13:10:02.636Z,28.9
2017-07-22T13:11:16.183Z,28.93
2017-07-22T13:12:30.092Z,28.95
2017-07-22T13:13:43.744Z,28.98
2017-07-22T13:14:57.488Z,29.01
2017-07-22T13:16:11.774Z,29.04
2017-07-22T13:17:25.303Z,29.07
2017-07-22T13:18:38.901Z,29.11
2017-07-22T13:19:52.839Z,29.17
2017-07-22T13:21:06.428Z,29.24
2017-07-22T13:22:20.289Z,29.32
2017-07-22T13:23:33.868Z,29.41
2017-07-22T13:24:47.471Z,29.47
2017-07-22T13:26:01.225Z,29.53
2017-07-22T13:27:15.207Z,29.56
2017-07-22T13:28:29.037Z,29.58
2017-07-22T13:29:42.581Z,29.59
2017-07-22T13:30:56.584Z,29.6
2017-07-22T13:32:12.002Z,29.61
2017-07-22T13:33:26.362Z,29.64
2017-07-22T13:34:42.790Z,29.69
2017-07-22T13:35:57.713Z,29.75
2017-07-22T13:37:11.256Z,29.82
2017-07-22T13:38:25.108Z,29.87
2017-07-22T13:39:38.618Z,29.89
2017-07-22T13:40:52.670Z,29.88
2017-07-22T13:42:06.699Z,29.83
2017-07-22T13:43:20.578Z,29.74
2017-07-22T13:44:34.445Z,29.62
2017-07-22T13:45:47.954Z,29.5
2017-07-22T13:47:01.837Z,29.36
2017-07-22T13:48:15.385Z,29.24
2017-07-22T13:49:29.259Z,29.11
2017-07-22T13:50:42.989Z,29
2017-07-22T13:51:56.969Z,28.88
2017-07-22T13:53:10.907Z,28.76
2017-07-22T13:54:24.440Z,28.65
2017-07-22T13:55:37.984Z,28.54
2017-07-22T13:56:51.580Z,28.42
2017-07-22T13:58:05.212Z,28.28
2017-07-22T13:59:19.670Z,28.18
2017-07-22T14:00:33.217Z,28.07
2017-07-22T14:01:47.097Z,27.99
2017-07-22T14:03:00.821Z,27.94
2017-07-22T14:04:14.357Z,27.87
2017-07-22T14:05:28.171Z,27.81
2017-07-22T14:06:42.768Z,27.78
2017-07-22T14:07:56.360Z,27.75
2017-07-22T14:09:10.234Z,27.74
2017-07-22T14:10:24.075Z,27.75
2017-07-22T14:11:37.899Z,27.74
2017-07-22T14:12:51.427Z,27.73
2017-07-22T14:14:05.157Z,27.75
2017-07-22T14:15:18.787Z,27.77
2017-07-22T14:16:32.334Z,27.77
2017-07-22T14:17:46.508Z,27.79
2017-07-22T14:19:00.112Z,27.8
2017-07-22T14:20:14.168Z,27.81
2017-07-22T14:21:27.705Z,27.85
2017-07-22T14:22:41.219Z,27.87
2017-07-22T14:23:55.109Z,27.9
2017-07-22T14:25:08.813Z,27.91
2017-07-22T14:26:22.549Z,27.95
2017-07-22T14:27:36.113Z,28
2017-07-22T14:28:49.972Z,28.05
2017-07-22T14:30:04.052Z,28.11
2017-07-22T14:31:17.713Z,28.21
2017-07-22T14:32:32.511Z,28.29
2017-07-22T14:33:46.360Z,28.4
2017-07-22T14:35:00.567Z,28.49
2017-07-22T14:36:14.411Z,28.59
2017-07-22T14:37:27.961Z,28.67
2017-07-22T14:38:41.511Z,28.71
2017-07-22T14:39:55.135Z,28.76
2017-07-22T14:41:09.104Z,28.78
2017-07-22T14:42:23.243Z,28.82
2017-07-22T14:43:37.484Z,28.84
2017-07-22T14:44:51.030Z,28.79
2017-07-22T14:46:04.575Z,28.76
2017-07-22T14:47:18.330Z,28.75
2017-07-22T14:48:32.176Z,28.71
2017-07-22T14:49:45.778Z,28.58
2017-07-22T14:50:59.717Z,28.5
2017-07-22T14:52:13.390Z,28.45
2017-07-22T14:53:27.565Z,28.4
2017-07-22T14:54:41.621Z,28.43
2017-07-22T14:55:55.167Z,28.41
2017-07-22T14:57:08.793Z,28.39
2017-07-22T14:58:22.393Z,28.38
2017-07-22T14:59:36.066Z,28.37
2017-07-22T15:00:49.935Z,28.37
2017-07-22T15:02:03.557Z,28.35
2017-07-22T15:03:18.439Z,28.37
2017-07-22T15:04:34.484Z,28.4
2017-07-22T15:05:48.455Z,28.44
2017-07-22T15:07:02.333Z,28.53
2017-07-22T15:08:15.872Z,28.62
2017-07-22T15:09:29.409Z,28.71
2017-07-22T15:10:42.946Z,28.78
2017-07-22T15:11:56.837Z,28.84
2017-07-22T15:13:10.900Z,28.84
2017-07-22T15:14:24.454Z,28.83
2017-07-22T15:15:38.072Z,28.77
2017-07-22T15:16:52.417Z,28.71
2017-07-22T15:18:06.555Z,28.64
2017-07-22T15:19:20.443Z,28.59
2017-07-22T15:20:34.750Z,28.55
2017-07-22T15:21:48.291Z,28.52
2017-07-22T15:23:02.007Z,28.49
2017-07-22T15:24:16.145Z,28.48
2017-07-22T15:25:30.446Z,28.46
2017-07-22T15:26:44.133Z,28.42
2017-07-22T15:27:58.513Z,28.41
2017-07-22T15:29:13.396Z,28.39
2017-07-22T15:30:29.221Z,28.37
2017-07-22T15:31:46.310Z,28.41
2017-07-22T15:32:59.886Z,28.45
2017-07-22T15:34:14.080Z,28.56
2017-07-22T15:35:27.830Z,28.65
2017-07-22T15:36:47.951Z,28.74
2017-07-22T15:38:03.051Z,28.81
2017-07-22T15:39:17.399Z,28.87
2017-07-22T15:40:31.474Z,28.92
2017-07-22T15:41:45.849Z,28.91
2017-07-22T15:42:59.705Z,28.88
2017-07-22T15:44:13.966Z,28.85
2017-07-22T15:45:28.067Z,28.82
2017-07-22T15:46:42.406Z,28.79
2017-07-22T15:47:56.635Z,28.78
2017-07-22T15:49:20.526Z,28.76
2017-07-22T15:50:34.999Z,28.76
2017-07-22T15:51:49.352Z,28.79
2017-07-22T15:53:03.068Z,28.84
2017-07-22T15:54:17.715Z,28.9
2017-07-22T15:55:31.397Z,28.93
2017-07-22T15:56:45.267Z,28.93
2017-07-22T15:57:58.884Z,28.93
2017-07-22T15:59:13.038Z,28.92
2017-07-22T16:00:27.629Z,28.93
2017-07-22T16:01:41.709Z,28.94